X  Close Metar Aviation Weather Data     KPNS Pensacola International Airport
Temperature
45°F Temperature
28°F Dewpoint
53% Humidity



Wind
8 MPH
13 KM/H
4 M/S
7 KTS



360°
North
Current Conditions

Clear Clear
Pressure 1024.02 (hPa) - 30.24 (inHg)
Visibility 10 (mile) - 16.1 (km)
Airport
Airport-code KPNS

Location: Pensacola International Airport
Distance: 9 (mi)

Metar:
KPNS 270453Z AUTO 36007KT 10SM CLR 07/M02 A3024 RMK AO2 SLP245 T00721022

Time: 26-01-2022 22:53 CST